Benina International Airport


Codes: HLLB/BEN
Name: Benina International Airport
City: Benghazi
Country: Libya
Elevation: 433 ft.
Wikipedia:

Photos at Benina International Airport


   Photos courtesy of SpottingLog. You can add your own sightings and photos by signing up for a free trial today.



No photos found.

Weather at Benina International Airport


Time (UTC)DescriptionTempratureWindCloud coverageVisibilityPressureHumidity
17-Jun-2024 06:00Clear Sky28°C9 mph, NE0%10000m1015hPa27%
17-Jun-2024 09:00Clear Sky30°C9 mph, NW0%10000m1015hPa24%
17-Jun-2024 12:00Clear Sky31°C16 mph, N0%10000m1015hPa26%
17-Jun-2024 15:00Clear Sky31°C18 mph, N4%10000m1014hPa30%
17-Jun-2024 18:00Few Clouds27°C16 mph, N17%10000m1014hPa46%
17-Jun-2024 21:00Clear Sky26°C13 mph, NE1%10000m1015hPa47%
18-Jun-2024 00:00Clear Sky25°C7 mph, NE0%10000m1014hPa43%
18-Jun-2024 03:00Clear Sky24°C9 mph, NE0%10000m1014hPa46%
18-Jun-2024 06:00Clear Sky28°C9 mph, N0%10000m1015hPa38%
18-Jun-2024 09:00Clear Sky32°C13 mph, N0%10000m1015hPa30%
18-Jun-2024 12:00Clear Sky32°C18 mph, N0%10000m1015hPa31%
18-Jun-2024 15:00Clear Sky30°C18 mph, N0%10000m1014hPa39%
18-Jun-2024 18:00Clear Sky26°C16 mph, N0%10000m1014hPa56%
18-Jun-2024 21:00Clear Sky25°C13 mph, N0%10000m1015hPa63%
19-Jun-2024 00:00Clear Sky24°C11 mph, NE0%10000m1013hPa64%
19-Jun-2024 03:00Clear Sky23°C11 mph, NE0%10000m1012hPa66%
19-Jun-2024 06:00Clear Sky27°C16 mph, NE0%10000m1014hPa46%
19-Jun-2024 09:00Clear Sky32°C18 mph, N0%10000m1014hPa33%
19-Jun-2024 12:00Clear Sky32°C20 mph, N0%10000m1013hPa33%
19-Jun-2024 15:00Clear Sky30°C20 mph, N0%10000m1013hPa41%
19-Jun-2024 18:00Clear Sky26°C16 mph, N0%10000m1013hPa60%
19-Jun-2024 21:00Clear Sky25°C18 mph, N0%10000m1014hPa68%
20-Jun-2024 00:00Clear Sky25°C18 mph, NE0%10000m1013hPa64%
20-Jun-2024 03:00Clear Sky23°C13 mph, N0%10000m1012hPa74%
20-Jun-2024 06:00Clear Sky26°C13 mph, N0%10000m1013hPa60%
20-Jun-2024 09:00Clear Sky31°C16 mph, N0%10000m1013hPa38%
20-Jun-2024 12:00Clear Sky33°C18 mph, N0%10000m1012hPa33%
20-Jun-2024 15:00Clear Sky32°C20 mph, N0%10000m1012hPa35%
20-Jun-2024 18:00Clear Sky27°C16 mph, N0%10000m1013hPa56%
20-Jun-2024 21:00Clear Sky25°C11 mph, N0%10000m1013hPa67%
21-Jun-2024 00:00Clear Sky24°C9 mph, N0%10000m1012hPa69%
21-Jun-2024 03:00Clear Sky23°C9 mph, N0%10000m1012hPa77%
21-Jun-2024 06:00Clear Sky27°C11 mph, N0%10000m1013hPa51%
21-Jun-2024 09:00Clear Sky32°C13 mph, NW0%10000m1012hPa31%
21-Jun-2024 12:00Clear Sky33°C16 mph, NW0%10000m1011hPa29%
21-Jun-2024 15:00Clear Sky30°C16 mph, NW0%10000m1011hPa40%
21-Jun-2024 18:00Clear Sky26°C11 mph, N0%10000m1011hPa68%
21-Jun-2024 21:00Clear Sky25°C7 mph, N0%10000m1012hPa73%
22-Jun-2024 00:00Clear Sky24°C7 mph, N0%10000m1011hPa68%
22-Jun-2024 03:00Clear Sky23°C9 mph, N0%10000m1011hPa77%